Time;durP1;ratioP1;P1;durP2;ratioP2;P2;SDS_P1;SDS_P2;PMS_P1;PMS_P2;Temp;Humidity;BMP_temperature;BMP_pressure;BME280_temperature;BME280_humidity;BME280_pressure;Samples;Min_cycle;Max_cycle;Signal;HPM_P1;HPM_P2
2022/12/15 00:38:46;;;;;;;27.63;12.65;;;;;;;;;;12846232;19;20324;-64
2022/12/15 00:43:03;;;;;;;27.85;12.63;;;;;;;;;;12844390;19;20373;-63
2022/12/15 00:47:20;;;;;;;28.98;13.70;;;;;;;;;;12846750;19;20434;-64
2022/12/15 01:23:48;;;;;;;31.65;14.10;;;;;;;;;;12844765;19;20517;-63
2022/12/15 01:28:05;;;;;;;30.10;13.60;;;;;;;;;;12844254;19;20029;-65
2022/12/15 01:32:22;;;;;;;28.92;13.85;;;;;;;;;;12844333;19;20384;-63
2022/12/15 01:36:40;;;;;;;26.52;12.85;;;;;;;;;;12843995;19;20315;-63
2022/12/15 01:41:05;;;;;;;27.17;13.07;;;;;;;;;;12842685;19;20319;-64
2022/12/15 01:45:28;;;;;;;22.73;11.45;;;;;;;;;;12841242;19;20607;-64
2022/12/15 01:49:46;;;;;;;28.83;12.07;;;;;;;;;;12844374;19;20458;-63
2022/12/15 01:54:34;;;;;;;29.27;13.75;;;;;;;;;;12840473;19;20367;-63
2022/12/15 01:58:55;;;;;;;34.58;15.30;;;;;;;;;;12842456;19;20457;-63
2022/12/15 02:03:13;;;;;;;45.28;17.30;;;;;;;;;;12842427;19;20380;-64
2022/12/15 02:07:30;;;;;;;23.30;11.57;;;;;;;;;;12841999;19;20608;-64
2022/12/15 02:12:12;;;;;;;21.52;11.25;;;;;;;;;;12842981;19;20502;-63
2022/12/15 02:16:48;;;;;;;23.38;10.50;;;;;;;;;;12841675;19;20327;-64
2022/12/15 02:21:17;;;;;;;20.33;10.20;;;;;;;;;;12839510;19;20430;-63
2022/12/15 02:26:18;;;;;;;21.73;10.18;;;;;;;;;;12841333;19;20414;-64
2022/12/15 02:31:48;;;;;;;19.63;9.82;;;;;;;;;;12841487;19;20371;-64
2022/12/15 02:35:30;;;;;;;21.25;10.05;;;;;;;;;;12841315;19;20448;-67
2022/12/15 02:39:47;;;;;;;18.48;10.68;;;;;;;;;;12840726;19;20427;-64
2022/12/15 02:44:17;;;;;;;22.42;10.82;;;;;;;;;;12838710;19;20367;-64
2022/12/15 02:49:11;;;;;;;18.35;10.07;;;;;;;;;;12840577;19;20525;-64
2022/12/15 02:54:08;;;;;;;20.52;11.18;;;;;;;;;;12843254;19;20006;-63
2022/12/15 02:59:19;;;;;;;16.95;10.25;;;;;;;;;;12839834;19;20474;-64
2022/12/15 03:03:37;;;;;;;25.33;10.90;;;;;;;;;;12837858;19;20385;-65
2022/12/15 03:07:54;;;;;;;23.02;11.55;;;;;;;;;;12839287;19;20031;-64
2022/12/15 03:12:11;;;;;;;22.42;11.52;;;;;;;;;;12837637;19;20430;-64
2022/12/15 03:16:28;;;;;;;20.73;11.27;;;;;;;;;;12838002;19;20006;-63
2022/12/15 03:20:45;;;;;;;22.27;11.73;;;;;;;;;;12836928;19;20319;-64
2022/12/15 03:25:03;;;;;;;20.48;11.50;;;;;;;;;;12838166;19;20343;-63
2022/12/15 03:29:20;;;;;;;28.33;13.50;;;;;;;;;;12837347;19;20469;-64
2022/12/15 03:33:38;;;;;;;25.40;12.80;;;;;;;;;;12836457;19;20478;-63
2022/12/15 03:37:55;;;;;;;34.05;14.52;;;;;;;;;;12837089;19;20355;-64
2022/12/15 03:42:12;;;;;;;27.83;13.15;;;;;;;;;;12833709;19;20481;-64
2022/12/15 03:46:29;;;;;;;28.98;14.07;;;;;;;;;;12837283;19;20103;-63
2022/12/15 03:50:48;;;;;;;27.85;13.23;;;;;;;;;;12836517;19;20086;-63
2022/12/15 03:55:06;;;;;;;29.25;13.60;;;;;;;;;;12835517;19;20010;-63
2022/12/15 03:59:23;;;;;;;25.13;11.85;;;;;;;;;;12835421;19;20423;-63
2022/12/15 04:03:40;;;;;;;26.45;14.43;;;;;;;;;;12836002;19;20446;-65
2022/12/15 04:08:01;;;;;;;27.63;14.10;;;;;;;;;;12834917;19;20438;-64
2022/12/15 04:12:21;;;;;;;29.65;14.82;;;;;;;;;;12833838;19;20038;-64
2022/12/15 04:16:38;;;;;;;29.17;14.93;;;;;;;;;;12834506;19;20421;-63
2022/12/15 04:20:55;;;;;;;31.23;16.30;;;;;;;;;;12834741;19;20505;-64
2022/12/15 05:34:30;;;;;;;45.22;23.55;;;;;;;;;;12842703;19;20437;-63
2022/12/15 05:38:51;;;;;;;37.30;16.67;;;;;;;;;;12843497;19;20300;-62
2022/12/15 05:43:09;;;;;;;31.83;15.18;;;;;;;;;;12841143;19;20057;-63
2022/12/15 05:47:26;;;;;;;28.73;15.48;;;;;;;;;;12841793;19;20014;-63
2022/12/15 05:51:46;;;;;;;31.43;15.03;;;;;;;;;;12842489;19;20046;-63
2022/12/15 05:56:06;;;;;;;31.45;13.85;;;;;;;;;;12842440;19;20016;-62
2022/12/15 06:00:23;;;;;;;31.23;14.75;;;;;;;;;;12841091;19;20055;-63
2022/12/15 06:04:40;;;;;;;37.53;16.15;;;;;;;;;;12841749;19;20311;-63
2022/12/15 06:08:58;;;;;;;36.92;16.85;;;;;;;;;;12841625;19;20494;-62
2022/12/15 06:13:15;;;;;;;38.88;16.90;;;;;;;;;;12840131;19;20010;-62
2022/12/15 06:17:32;;;;;;;34.05;16.35;;;;;;;;;;12840730;19;20473;-62
2022/12/15 06:21:49;;;;;;;31.95;16.70;;;;;;;;;;12841029;19;20307;-63
2022/12/15 06:26:21;;;;;;;36.83;16.17;;;;;;;;;;12841036;19;20458;-62
2022/12/15 06:30:38;;;;;;;36.83;17.92;;;;;;;;;;12840135;19;20461;-64
2022/12/15 06:34:55;;;;;;;37.65;16.02;;;;;;;;;;12840360;19;20430;-62
2022/12/15 06:39:14;;;;;;;38.70;15.68;;;;;;;;;;12838740;19;20340;-62
2022/12/15 06:43:32;;;;;;;35.40;16.85;;;;;;;;;;12838883;19;20429;-62
2022/12/15 06:47:49;;;;;;;;;;;;;;;;;;12839043;19;20485;-62
2022/12/15 06:52:08;;;;;;;37.85;17.10;;;;;;;;;;12841281;19;20196;-62
2022/12/15 06:56:29;;;;;;;35.97;16.73;;;;;;;;;;12838279;19;20440;-62
2022/12/15 07:00:50;;;;;;;37.60;17.23;;;;;;;;;;12838762;19;20418;-62
2022/12/15 07:05:08;;;;;;;39.60;16.65;;;;;;;;;;12837585;19;20514;-62
2022/12/15 07:09:26;;;;;;;40.40;17.45;;;;;;;;;;12838725;19;20371;-62
2022/12/15 07:13:43;;;;;;;47.38;19.98;;;;;;;;;;12838828;19;20038;-62
2022/12/15 07:18:00;;;;;;;40.05;17.95;;;;;;;;;;12835472;19;20343;-62
2022/12/15 07:22:17;;;;;;;40.63;17.83;;;;;;;;;;12833642;19;20478;-62
2022/12/15 07:26:34;;;;;;;43.03;18.45;;;;;;;;;;12838029;19;20306;-63
2022/12/15 07:30:51;;;;;;;38.03;17.80;;;;;;;;;;12837940;19;20480;-62
2022/12/15 07:35:09;;;;;;;50.85;20.05;;;;;;;;;;12836510;19;20014;-63
2022/12/15 07:39:27;;;;;;;36.28;17.13;;;;;;;;;;12837276;19;20433;-62
2022/12/15 07:43:45;;;;;;;33.77;16.07;;;;;;;;;;12834925;19;20474;-62
2022/12/15 07:48:02;;;;;;;36.88;16.42;;;;;;;;;;12835634;19;20303;-63
2022/12/15 07:52:23;;;;;;;39.88;17.63;;;;;;;;;;12837039;19;20361;-62
2022/12/15 07:56:40;;;;;;;44.58;17.98;;;;;;;;;;12835838;19;20447;-62
2022/12/15 08:01:03;;;;;;;46.63;18.90;;;;;;;;;;12835596;19;20310;-62
2022/12/15 08:05:20;;;;;;;42.17;17.95;;;;;;;;;;12836387;19;20531;-62
2022/12/15 08:09:37;;;;;;;43.75;18.83;;;;;;;;;;12836180;19;20466;-62
2022/12/15 08:13:54;;;;;;;37.15;17.90;;;;;;;;;;12835545;19;20292;-62
2022/12/15 08:18:23;;;;;;;41.50;19.85;;;;;;;;;;12834990;19;20343;-65
2022/12/15 08:22:40;;;;;;;60.17;26.52;;;;;;;;;;12834348;19;20474;-63
2022/12/15 08:26:59;;;;;;;37.58;18.70;;;;;;;;;;12837250;19;20465;-63
2022/12/15 08:31:19;;;;;;;42.97;18.02;;;;;;;;;;12846695;19;20296;-63
2022/12/15 08:35:40;;;;;;;38.65;17.17;;;;;;;;;;12847047;19;20481;-63
2022/12/15 08:40:12;;;;;;;38.88;16.92;;;;;;;;;;12843710;19;20010;-62
2022/12/15 08:44:30;;;;;;;35.65;17.58;;;;;;;;;;12840165;19;20362;-62
2022/12/15 08:48:48;;;;;;;44.20;19.92;;;;;;;;;;12842709;19;20015;-63
2022/12/15 08:53:05;;;;;;;58.83;26.97;;;;;;;;;;12843521;19;20445;-62
2022/12/15 08:57:41;;;;;;;37.15;17.55;;;;;;;;;;12845599;19;20351;-62
2022/12/15 09:01:59;;;;;;;44.28;20.77;;;;;;;;;;12844652;19;20339;-63
2022/12/15 09:06:20;;;;;;;36.65;17.05;;;;;;;;;;12845261;19;20434;-62
2022/12/15 09:10:40;;;;;;;33.25;15.70;;;;;;;;;;12842709;19;20070;-63
2022/12/15 09:14:57;;;;;;;31.55;16.08;;;;;;;;;;12844349;19;20455;-63
2022/12/15 09:19:15;;;;;;;37.63;16.63;;;;;;;;;;12844234;19;20473;-63
2022/12/15 09:23:33;;;;;;;47.63;24.10;;;;;;;;;;12843245;19;20703;-64
2022/12/15 09:27:51;;;;;;;31.88;15.35;;;;;;;;;;12843989;19;20438;-63
2022/12/15 09:32:08;;;;;;;34.38;16.08;;;;;;;;;;12843429;19;20046;-64
2022/12/15 09:36:31;;;;;;;36.25;17.30;;;;;;;;;;12843511;19;20290;-62
2022/12/15 09:40:48;;;;;;;35.63;15.23;;;;;;;;;;12842196;19;20453;-63
2022/12/15 09:45:42;;;;;;;39.60;17.45;;;;;;;;;;12841202;19;20090;-62
2022/12/15 09:50:11;;;;;;;41.42;17.08;;;;;;;;;;12840745;19;20310;-63
2022/12/15 09:54:32;;;;;;;29.98;14.40;;;;;;;;;;12839877;19;20360;-64
2022/12/15 09:59:07;;;;;;;40.88;17.25;;;;;;;;;;12842774;19;20135;-62
2022/12/15 10:03:45;;;;;;;44.10;19.13;;;;;;;;;;12840854;19;20434;-62
2022/12/15 10:08:05;;;;;;;34.83;15.68;;;;;;;;;;12838963;19;20327;-62
2022/12/15 10:12:32;;;;;;;54.75;22.52;;;;;;;;;;12841612;19;21153;-63
2022/12/15 10:17:11;;;;;;;54.17;20.55;;;;;;;;;;12840362;19;20312;-62
2022/12/15 10:21:30;;;;;;;51.65;23.63;;;;;;;;;;12838909;19;20457;-62
2022/12/15 10:26:12;;;;;;;39.85;17.08;;;;;;;;;;12840413;19;20011;-62
2022/12/15 10:30:32;;;;;;;40.45;18.63;;;;;;;;;;12838538;19;20436;-63
2022/12/15 10:34:49;;;;;;;28.90;13.45;;;;;;;;;;12841879;19;20494;-63
2022/12/15 10:39:07;;;;;;;28.35;13.77;;;;;;;;;;12839923;19;20461;-63
2022/12/15 10:43:52;;;;;;;28.98;14.48;;;;;;;;;;12840920;19;20432;-63
2022/12/15 10:48:19;;;;;;;28.60;14.40;;;;;;;;;;12813089;19;20003;-62
2022/12/15 10:52:37;;;;;;;33.80;14.18;;;;;;;;;;12835572;19;20437;-63
2022/12/15 10:57:01;;;;;;;50.90;20.73;;;;;;;;;;12840017;19;20119;-62
2022/12/15 11:01:31;;;;;;;30.23;14.40;;;;;;;;;;12838381;19;20477;-62
2022/12/15 11:05:55;;;;;;;25.67;12.60;;;;;;;;;;12838441;19;20485;-66
2022/12/15 11:16:17;;;;;;;30.88;13.68;;;;;;;;;;12331134;19;10000277;-64
2022/12/15 11:20:48;;;;;;;29.65;15.35;;;;;;;;;;12833053;19;20030;-63
2022/12/15 11:25:37;;;;;;;34.97;16.48;;;;;;;;;;12833782;19;20011;-64
2022/12/15 11:30:25;;;;;;;34.00;16.52;;;;;;;;;;12836551;19;20470;-63
2022/12/15 11:34:45;;;;;;;35.20;15.88;;;;;;;;;;12835199;19;20525;-63
2022/12/15 11:39:30;;;;;;;27.85;15.25;;;;;;;;;;12835886;19;20348;-63
2022/12/15 11:44:14;;;;;;;32.47;15.18;;;;;;;;;;12834728;19;20449;-63
2022/12/15 11:48:52;;;;;;;31.10;14.43;;;;;;;;;;12835455;19;20353;-64
2022/12/15 11:53:44;;;;;;;43.47;16.92;;;;;;;;;;12835443;19;20430;-63
2022/12/15 11:58:27;;;;;;;30.15;14.75;;;;;;;;;;12836978;19;20404;-63
2022/12/15 12:02:54;;;;;;;29.88;13.55;;;;;;;;;;12837445;19;20628;-63
2022/12/15 12:07:19;;;;;;;35.05;16.83;;;;;;;;;;12847923;19;20319;-63
2022/12/15 12:11:54;;;;;;;24.00;13.20;;;;;;;;;;12848335;19;20319;-63
2022/12/15 12:16:32;;;;;;;27.63;13.98;;;;;;;;;;12846435;19;20505;-63
2022/12/15 12:21:06;;;;;;;31.63;15.77;;;;;;;;;;12848284;19;20022;-63
2022/12/15 12:25:25;;;;;;;39.08;16.05;;;;;;;;;;12845803;19;20287;-63
2022/12/15 12:29:51;;;;;;;27.20;13.20;;;;;;;;;;12846613;19;20465;-64
2022/12/15 12:34:21;;;;;;;33.60;13.65;;;;;;;;;;12845128;19;20439;-64
2022/12/15 12:38:52;;;;;;;31.38;14.43;;;;;;;;;;12760941;19;20421;-63
2022/12/15 12:43:32;;;;;;;90.85;28.05;;;;;;;;;;12844768;19;20442;-64
2022/12/15 12:47:52;;;;;;;34.65;14.85;;;;;;;;;;12792722;19;20006;-63
2022/12/15 12:52:35;;;;;;;63.88;22.10;;;;;;;;;;12843851;19;20363;-64
2022/12/15 12:56:52;;;;;;;38.42;15.55;;;;;;;;;;12846999;19;20334;-64
2022/12/15 13:01:09;;;;;;;47.08;20.58;;;;;;;;;;12840446;19;20023;-63
2022/12/15 13:05:32;;;;;;;42.63;17.90;;;;;;;;;;12840871;19;20342;-64
2022/12/15 13:10:06;;;;;;;65.78;23.35;;;;;;;;;;12842559;19;20376;-63
2022/12/15 13:14:30;;;;;;;42.38;18.33;;;;;;;;;;12839309;19;20461;-63
2022/12/15 13:19:03;;;;;;;44.90;19.33;;;;;;;;;;12843327;19;20490;-63
2022/12/15 13:23:20;;;;;;;38.72;17.30;;;;;;;;;;12840185;19;20314;-64
2022/12/15 13:27:39;;;;;;;36.05;17.35;;;;;;;;;;12844640;19;20344;-63
2022/12/15 13:31:56;;;;;;;27.58;13.63;;;;;;;;;;12842929;19;20525;-64
2022/12/15 13:36:38;;;;;;;30.77;13.18;;;;;;;;;;12842153;19;20426;-63
2022/12/15 13:40:55;;;;;;;33.47;15.35;;;;;;;;;;12843422;19;20406;-64
2022/12/15 13:45:36;;;;;;;34.67;15.20;;;;;;;;;;12841957;19;20458;-63
2022/12/15 13:50:37;;;;;;;30.23;13.55;;;;;;;;;;12844010;19;20482;-63
2022/12/15 13:55:04;;;;;;;24.83;12.77;;;;;;;;;;12839710;19;20364;-64
2022/12/15 13:59:41;;;;;;;38.55;13.90;;;;;;;;;;12842997;19;20042;-63
2022/12/15 14:04:25;;;;;;;29.45;13.32;;;;;;;;;;12842218;19;20014;-63
2022/12/15 14:08:42;;;;;;;32.63;14.43;;;;;;;;;;12842358;19;20010;-63
2022/12/15 14:13:10;;;;;;;39.42;18.85;;;;;;;;;;12842330;19;20325;-63
2022/12/15 14:17:35;;;;;;;42.35;19.20;;;;;;;;;;12841245;19;20390;-63
2022/12/15 14:21:56;;;;;;;33.92;15.65;;;;;;;;;;12839029;19;20484;-63
2022/12/15 14:26:16;;;;;;;34.10;14.60;;;;;;;;;;12840099;19;20078;-63
2022/12/15 14:30:34;;;;;;;27.15;12.32;;;;;;;;;;12840558;19;20437;-63
2022/12/15 14:34:51;;;;;;;22.88;12.40;;;;;;;;;;12841254;19;20331;-63
2022/12/15 14:39:30;;;;;;;27.58;14.52;;;;;;;;;;12837764;19;20355;-63
2022/12/15 14:43:49;;;;;;;26.90;13.27;;;;;;;;;;12839654;19;20362;-63
2022/12/15 14:48:32;;;;;;;;;;;;;;;;;;12765114;19;20355;-63
2022/12/15 14:53:16;;;;;;;29.67;15.13;;;;;;;;;;12784738;19;20198;-64
2022/12/15 14:57:44;;;;;;;26.98;14.25;;;;;;;;;;12839978;19;20434;-63
2022/12/15 15:02:30;;;;;;;31.92;13.85;;;;;;;;;;12837918;19;20014;-63
2022/12/15 15:06:56;;;;;;;30.73;13.68;;;;;;;;;;12838404;19;20031;-63
2022/12/15 15:11:28;;;;;;;27.23;13.38;;;;;;;;;;12838761;19;20331;-63
2022/12/15 15:16:01;;;;;;;27.75;14.27;;;;;;;;;;12336032;19;10000548;-64
2022/12/15 15:20:25;;;;;;;35.10;14.10;;;;;;;;;;12838401;19;20430;-64
2022/12/15 15:24:50;;;;;;;31.55;15.00;;;;;;;;;;12837211;19;20465;-63
2022/12/15 15:29:35;;;;;;;31.17;15.05;;;;;;;;;;12832510;19;20451;-63
2022/12/15 15:33:58;;;;;;;27.88;13.77;;;;;;;;;;12727245;19;20014;-63
2022/12/15 15:38:33;;;;;;;29.45;13.13;;;;;;;;;;12834527;19;20048;-63
2022/12/15 15:42:51;;;;;;;37.35;17.45;;;;;;;;;;12835592;19;20448;-63
2022/12/15 15:47:24;;;;;;;63.38;28.55;;;;;;;;;;12836305;19;20449;-63
2022/12/15 15:51:41;;;;;;;61.85;22.77;;;;;;;;;;12838152;19;20342;-63
2022/12/15 15:55:59;;;;;;;74.45;24.25;;;;;;;;;;12835929;19;20429;-63
2022/12/15 16:00:21;;;;;;;64.90;25.85;;;;;;;;;;12837262;19;20015;-64
2022/12/15 16:04:43;;;;;;;66.65;26.38;;;;;;;;;;12836643;19;20355;-63
2022/12/15 16:09:00;;;;;;;46.47;21.48;;;;;;;;;;12836720;19;20333;-63
2022/12/15 16:13:20;;;;;;;38.00;17.63;;;;;;;;;;12832680;19;20106;-62
2022/12/15 16:17:42;;;;;;;37.45;17.25;;;;;;;;;;12836428;19;20383;-63
2022/12/15 16:21:59;;;;;;;55.97;25.00;;;;;;;;;;12836239;19;20616;-63
2022/12/15 16:26:29;;;;;;;76.45;30.02;;;;;;;;;;12835612;19;20338;-63
2022/12/15 16:30:47;;;;;;;74.85;28.48;;;;;;;;;;12836741;19;20054;-63
2022/12/15 16:35:06;;;;;;;58.77;24.33;;;;;;;;;;12834842;19;20345;-63
2022/12/15 16:39:29;;;;;;;74.55;30.80;;;;;;;;;;12834889;19;20586;-63
2022/12/15 16:43:46;;;;;;;68.45;26.30;;;;;;;;;;12831594;19;20498;-63
2022/12/15 16:48:04;;;;;;;48.88;22.48;;;;;;;;;;12838487;19;20440;-63
2022/12/15 16:52:21;;;;;;;525.30;168.20;;;;;;;;;;12847599;19;20007;-63
2022/12/15 16:56:38;;;;;;;463.30;135.30;;;;;;;;;;12846721;19;20458;-64
2022/12/15 17:00:55;;;;;;;133.20;45.28;;;;;;;;;;12844267;19;20018;-63
2022/12/15 17:05:13;;;;;;;362.17;118.50;;;;;;;;;;12846082;19;20342;-64
2022/12/15 17:09:35;;;;;;;129.60;48.55;;;;;;;;;;12846118;19;20026;-63
2022/12/15 17:13:56;;;;;;;186.68;72.22;;;;;;;;;;12846491;19;20426;-62
2022/12/15 17:18:13;;;;;;;45.33;22.30;;;;;;;;;;12790165;19;20302;-63
2022/12/15 17:22:32;;;;;;;52.53;27.23;;;;;;;;;;12846410;19;20006;-63
2022/12/15 17:26:49;;;;;;;69.53;32.83;;;;;;;;;;12845194;19;20322;-63
2022/12/15 17:31:19;;;;;;;79.28;35.38;;;;;;;;;;12840565;19;20430;-63
2022/12/15 17:35:36;;;;;;;304.33;89.32;;;;;;;;;;12842428;19;20007;-63
2022/12/15 17:39:53;;;;;;;276.15;80.60;;;;;;;;;;12843810;19;20326;-63
2022/12/15 17:44:18;;;;;;;305.48;91.85;;;;;;;;;;12841597;19;20039;-63
2022/12/15 17:48:53;;;;;;;112.15;38.22;;;;;;;;;;12843217;19;20393;-63
2022/12/15 17:53:12;;;;;;;66.72;28.13;;;;;;;;;;12842274;19;20359;-63
2022/12/15 17:57:30;;;;;;;346.63;120.43;;;;;;;;;;12842609;19;20010;-62
2022/12/15 18:01:47;;;;;;;376.58;114.88;;;;;;;;;;12841485;19;20429;-62
2022/12/15 18:06:12;;;;;;;197.85;53.60;;;;;;;;;;12841441;19;20011;-63
2022/12/15 18:10:34;;;;;;;148.68;38.95;;;;;;;;;;12841315;19;20603;-63
2022/12/15 18:14:51;;;;;;;76.28;29.17;;;;;;;;;;12841190;19;20041;-62
2022/12/15 18:19:09;;;;;;;212.53;46.90;;;;;;;;;;12840465;19;20425;-63
2022/12/15 18:23:29;;;;;;;95.43;27.80;;;;;;;;;;12841419;19;20324;-64
2022/12/15 18:27:48;;;;;;;266.40;68.75;;;;;;;;;;12839102;19;20327;-63
2022/12/15 18:32:08;;;;;;;204.68;70.00;;;;;;;;;;12841020;19;20442;-63
2022/12/15 18:36:25;;;;;;;249.90;74.70;;;;;;;;;;12838465;19;20464;-63
2022/12/15 18:40:45;;;;;;;282.65;93.70;;;;;;;;;;12840661;19;20007;-63
2022/12/15 18:45:03;;;;;;;221.95;72.10;;;;;;;;;;12838397;19;20365;-63
2022/12/15 18:49:21;;;;;;;191.80;67.13;;;;;;;;;;12838772;19;20444;-63
2022/12/15 18:53:39;;;;;;;181.30;54.85;;;;;;;;;;12704213;19;20433;-63
2022/12/15 18:58:00;;;;;;;221.57;63.13;;;;;;;;;;12804934;19;20341;-63
2022/12/15 19:02:17;;;;;;;180.48;55.92;;;;;;;;;;12838158;19;20308;-62
2022/12/15 19:06:35;;;;;;;119.65;41.95;;;;;;;;;;12838805;19;20651;-63
2022/12/15 19:10:58;;;;;;;125.30;43.08;;;;;;;;;;12835092;19;20042;-62
2022/12/15 19:15:17;;;;;;;69.28;28.25;;;;;;;;;;12836427;19;20351;-62
2022/12/15 19:24:52;;;;;;;62.60;27.55;;;;;;;;;;12819110;19;160150;-63
2022/12/15 19:29:00;;;;;;;57.33;26.83;;;;;;;;;;12836006;19;20339;-62
2022/12/15 19:33:18;;;;;;;78.00;35.40;;;;;;;;;;12835570;19;20311;-64
2022/12/15 19:37:36;;;;;;;72.10;28.48;;;;;;;;;;12836854;19;20440;-63
2022/12/15 19:41:53;;;;;;;83.75;31.60;;;;;;;;;;12837174;19;20007;-64
2022/12/15 19:46:15;;;;;;;115.65;40.45;;;;;;;;;;12835863;19;20011;-63
2022/12/15 19:50:36;;;;;;;80.32;33.80;;;;;;;;;;12836032;19;20422;-63
2022/12/15 19:54:53;;;;;;;59.55;26.35;;;;;;;;;;12835493;19;20445;-63
2022/12/15 19:59:24;;;;;;;66.20;28.27;;;;;;;;;;12835730;19;20441;-63
2022/12/15 20:03:45;;;;;;;58.50;26.05;;;;;;;;;;12833701;19;20391;-63
2022/12/15 20:08:02;;;;;;;72.43;30.75;;;;;;;;;;12835391;19;20319;-63
2022/12/15 20:12:21;;;;;;;69.82;30.58;;;;;;;;;;12835283;19;20441;-63
2022/12/15 20:16:38;;;;;;;64.03;32.22;;;;;;;;;;12835496;19;20331;-63
2022/12/15 20:20:55;;;;;;;60.13;26.60;;;;;;;;;;12834797;19;20441;-67
2022/12/15 20:25:19;;;;;;;85.22;35.70;;;;;;;;;;12843099;19;20469;-63
2022/12/15 20:29:36;;;;;;;76.47;30.05;;;;;;;;;;12847297;19;20421;-62
2022/12/15 20:33:53;;;;;;;60.42;26.70;;;;;;;;;;12847482;19;20436;-63
2022/12/15 20:38:36;;;;;;;64.95;25.70;;;;;;;;;;12845425;19;20011;-62
2022/12/15 20:42:54;;;;;;;62.92;26.08;;;;;;;;;;12845478;19;20429;-63
2022/12/15 20:47:32;;;;;;;54.70;25.00;;;;;;;;;;12848011;19;20450;-63
2022/12/15 20:51:50;;;;;;;66.80;22.38;;;;;;;;;;12845098;19;20426;-63
2022/12/15 20:56:08;;;;;;;50.72;22.80;;;;;;;;;;12847976;19;20444;-63
2022/12/15 21:00:25;;;;;;;55.57;25.87;;;;;;;;;;12845711;19;20437;-63
2022/12/15 21:04:42;;;;;;;58.35;22.90;;;;;;;;;;12843697;19;20031;-62
2022/12/15 21:08:59;;;;;;;45.83;20.48;;;;;;;;;;12845634;19;20003;-63
2022/12/15 21:13:30;;;;;;;43.63;18.52;;;;;;;;;;12846696;19;20327;-63
2022/12/15 21:17:51;;;;;;;49.55;20.95;;;;;;;;;;12845796;19;20484;-63
2022/12/15 21:22:28;;;;;;;47.47;19.55;;;;;;;;;;12844179;19;20441;-64
2022/12/15 21:26:45;;;;;;;46.28;21.13;;;;;;;;;;12845789;19;20434;-63
2022/12/15 21:31:02;;;;;;;29.48;14.55;;;;;;;;;;12845389;19;20461;-64
2022/12/15 21:35:20;;;;;;;36.33;14.85;;;;;;;;;;12842413;19;20469;-63
2022/12/15 21:39:37;;;;;;;16.38;8.02;;;;;;;;;;12844814;19;20342;-62
2022/12/15 21:43:54;;;;;;;31.35;15.82;;;;;;;;;;12842502;19;20303;-63
2022/12/15 21:52:47;;;;;;;44.95;22.73;;;;;;;;;;12844984;19;20074;-63
2022/12/15 21:57:09;;;;;;;48.25;18.75;;;;;;;;;;12841737;19;20430;-64
2022/12/15 22:01:29;;;;;;;42.63;19.25;;;;;;;;;;12843617;19;20038;-63
2022/12/15 22:05:46;;;;;;;42.67;20.67;;;;;;;;;;12842962;19;20434;-63
2022/12/15 22:10:04;;;;;;;54.30;23.27;;;;;;;;;;12843252;19;20367;-63
2022/12/15 22:14:26;;;;;;;41.28;17.67;;;;;;;;;;12842898;19;20399;-63
2022/12/15 22:18:48;;;;;;;38.67;15.60;;;;;;;;;;12840873;19;20645;-63
2022/12/15 22:23:06;;;;;;;42.50;20.05;;;;;;;;;;12841446;19;20478;-63
2022/12/15 22:27:23;;;;;;;40.28;16.75;;;;;;;;;;12842729;19;20473;-63
2022/12/15 22:31:40;;;;;;;28.58;14.55;;;;;;;;;;12840562;19;20643;-62
2022/12/15 22:35:57;;;;;;;33.90;15.93;;;;;;;;;;12841457;19;20509;-62
2022/12/15 22:40:16;;;;;;;34.85;16.27;;;;;;;;;;12841277;19;20006;-62
2022/12/15 22:44:36;;;;;;;28.05;13.48;;;;;;;;;;12839802;19;20448;-62
2022/12/15 22:48:53;;;;;;;30.42;14.27;;;;;;;;;;12839177;19;20367;-63
2022/12/15 22:53:19;;;;;;;34.10;16.23;;;;;;;;;;12839986;19;20437;-63
2022/12/15 22:57:37;;;;;;;22.83;12.07;;;;;;;;;;12840580;19;20509;-62
2022/12/15 23:01:54;;;;;;;20.65;10.73;;;;;;;;;;12840619;19;20323;-62
2022/12/15 23:06:11;;;;;;;29.97;14.33;;;;;;;;;;12839013;19;20461;-63
2022/12/15 23:19:44;;;;;;;32.70;13.40;;;;;;;;;;12840093;19;20620;-65
2022/12/15 23:24:01;;;;;;;46.80;19.23;;;;;;;;;;12840386;19;20376;-64
2022/12/15 23:28:18;;;;;;;46.72;19.85;;;;;;;;;;12838163;19;20362;-63
2022/12/15 23:32:37;;;;;;;50.88;20.88;;;;;;;;;;12839026;19;20014;-63
2022/12/15 23:36:54;;;;;;;105.20;40.50;;;;;;;;;;12839777;19;20035;-63
2022/12/15 23:41:16;;;;;;;21.52;10.20;;;;;;;;;;12837680;19;20490;-64
2022/12/15 23:45:33;;;;;;;64.75;27.63;;;;;;;;;;12838559;19;20438;-63
2022/12/15 23:49:50;;;;;;;40.67;16.38;;;;;;;;;;12838288;19;20374;-63
2022/12/15 23:54:08;;;;;;;60.17;25.73;;;;;;;;;;12837552;19;20454;-63
2022/12/15 23:58:25;;;;;;;24.88;9.95;;;;;;;;;;12836072;19;20319;-63
